createdAt,value
2019-01-16T00:00:37.581Z,18.86
2019-01-16T00:01:37.269Z,18.83
2019-01-16T00:02:39.044Z,18.82
2019-01-16T00:03:37.634Z,18.82
2019-01-16T00:04:37.108Z,18.83
2019-01-16T00:05:37.243Z,18.83
2019-01-16T00:06:37.921Z,18.82
2019-01-16T00:07:37.180Z,18.82
2019-01-16T00:08:37.270Z,18.78
2019-01-16T00:09:37.823Z,18.82
2019-01-16T00:10:37.326Z,18.79
2019-01-16T00:11:37.445Z,18.78
2019-01-16T00:12:37.272Z,18.77
2019-01-16T00:13:37.236Z,18.8
2019-01-16T00:14:37.665Z,18.77
2019-01-16T00:15:37.308Z,18.8
2019-01-16T00:16:37.789Z,18.77
2019-01-16T00:17:37.506Z,18.79
2019-01-16T00:18:37.625Z,18.74
2019-01-16T00:19:37.328Z,18.73
2019-01-16T00:20:37.226Z,18.73
2019-01-16T00:21:37.867Z,18.77
2019-01-16T00:22:37.357Z,18.74
2019-01-16T00:23:37.146Z,18.76
2019-01-16T00:24:37.343Z,18.71
2019-01-16T00:25:38.983Z,18.74
2019-01-16T00:26:37.159Z,18.72
2019-01-16T00:27:37.663Z,18.73
2019-01-16T00:28:37.105Z,18.7
2019-01-16T00:29:37.268Z,18.7
2019-01-16T00:30:37.132Z,18.71
2019-01-16T00:31:37.415Z,18.71
2019-01-16T00:32:37.517Z,18.71
2019-01-16T00:33:37.107Z,18.69
2019-01-16T00:34:37.518Z,18.71
2019-01-16T00:35:37.033Z,18.71
2019-01-16T00:36:37.407Z,18.7
2019-01-16T00:37:37.136Z,18.69
2019-01-16T00:38:37.136Z,18.7
2019-01-16T00:39:37.013Z,18.69
2019-01-16T00:40:38.143Z,18.7
2019-01-16T00:41:36.985Z,18.66
2019-01-16T00:42:37.281Z,18.65
2019-01-16T00:43:37.171Z,18.66
2019-01-16T00:44:37.259Z,18.66
2019-01-16T00:45:38.984Z,18.65
2019-01-16T00:46:37.680Z,18.65
2019-01-16T00:47:37.424Z,18.64
2019-01-16T00:48:37.175Z,18.64
2019-01-16T00:49:37.659Z,18.64
2019-01-16T00:50:37.264Z,18.65
2019-01-16T00:51:37.190Z,18.63
2019-01-16T00:52:37.282Z,18.62
2019-01-16T00:53:37.264Z,18.63
2019-01-16T00:54:37.494Z,18.63
2019-01-16T00:55:37.683Z,18.61
2019-01-16T00:56:37.662Z,18.62
2019-01-16T00:57:37.203Z,18.61
2019-01-16T00:58:39.096Z,18.61
2019-01-16T00:59:37.113Z,18.58
2019-01-16T01:00:37.349Z,18.59
2019-01-16T01:01:37.200Z,18.59
2019-01-16T01:02:37.063Z,18.59
2019-01-16T01:03:37.268Z,18.58
2019-01-16T01:04:37.264Z,18.58
2019-01-16T01:05:37.118Z,18.56
2019-01-16T01:06:38.062Z,18.58
2019-01-16T01:07:37.339Z,18.56
2019-01-16T01:08:37.444Z,18.58
2019-01-16T01:09:37.521Z,18.56
2019-01-16T01:10:37.235Z,18.55
2019-01-16T01:11:37.091Z,18.54
2019-01-16T01:12:37.147Z,18.54
2019-01-16T01:13:37.101Z,18.55
2019-01-16T01:14:37.320Z,18.56
2019-01-16T01:15:37.289Z,18.54
2019-01-16T01:16:37.132Z,18.53
2019-01-16T01:17:37.338Z,18.53
2019-01-16T01:18:41.382Z,18.51
2019-01-16T01:19:37.337Z,18.52
2019-01-16T01:20:37.254Z,18.52
2019-01-16T01:21:37.115Z,18.51
2019-01-16T01:22:37.154Z,18.5
2019-01-16T01:23:37.183Z,18.53
2019-01-16T01:24:37.026Z,18.52
2019-01-16T01:25:37.367Z,18.5
2019-01-16T01:26:37.206Z,18.52
2019-01-16T01:27:37.030Z,18.49
2019-01-16T01:28:37.144Z,18.49
2019-01-16T01:29:37.377Z,18.5
2019-01-16T01:30:37.149Z,18.5
2019-01-16T01:31:37.427Z,18.5
2019-01-16T01:32:37.242Z,18.5
2019-01-16T01:33:37.426Z,18.46
2019-01-16T01:34:37.394Z,18.46
2019-01-16T01:35:37.364Z,18.47
2019-01-16T01:36:37.361Z,18.49
2019-01-16T01:37:37.349Z,18.47
2019-01-16T01:38:37.866Z,18.48
2019-01-16T01:39:38.915Z,18.44
2019-01-16T01:40:37.452Z,18.44
2019-01-16T01:41:37.274Z,18.43
2019-01-16T01:42:37.106Z,18.46
2019-01-16T01:43:38.965Z,18.44
2019-01-16T01:44:37.872Z,18.43
2019-01-16T01:45:37.096Z,18.44
2019-01-16T01:46:37.393Z,18.42
2019-01-16T01:47:37.775Z,18.41
2019-01-16T01:48:40.479Z,18.42
2019-01-16T01:49:37.719Z,18.44
2019-01-16T01:50:37.420Z,18.42
2019-01-16T01:51:37.222Z,18.41
2019-01-16T01:52:37.125Z,18.41
2019-01-16T01:53:37.338Z,18.39
2019-01-16T01:54:37.298Z,18.4
2019-01-16T01:55:38.133Z,18.41
2019-01-16T01:56:38.118Z,18.41
2019-01-16T01:57:37.106Z,18.39
2019-01-16T01:58:37.309Z,18.4
2019-01-16T01:59:37.829Z,18.4
2019-01-16T02:00:38.980Z,18.4
2019-01-16T02:01:37.442Z,18.41
2019-01-16T02:02:40.004Z,18.39
2019-01-16T02:03:37.367Z,18.39
2019-01-16T02:04:37.254Z,18.38
2019-01-16T02:05:37.011Z,18.38
2019-01-16T02:06:37.232Z,18.38
2019-01-16T02:07:37.130Z,18.38
2019-01-16T02:08:37.036Z,18.36
2019-01-16T02:09:37.102Z,18.37
2019-01-16T02:10:37.579Z,18.34
2019-01-16T02:11:37.043Z,18.37
2019-01-16T02:12:37.269Z,18.37
2019-01-16T02:13:37.736Z,18.37
2019-01-16T02:14:36.996Z,18.36
2019-01-16T02:15:37.207Z,18.36
2019-01-16T02:16:37.043Z,18.35
2019-01-16T02:17:37.166Z,18.36
2019-01-16T02:18:37.435Z,18.36
2019-01-16T02:19:37.319Z,18.34
2019-01-16T02:20:37.797Z,18.35
2019-01-16T02:21:38.055Z,18.34
2019-01-16T02:22:37.012Z,18.33
2019-01-16T02:23:37.208Z,18.3
2019-01-16T02:24:37.168Z,18.32
2019-01-16T02:25:37.056Z,18.33
2019-01-16T02:26:37.114Z,18.33
2019-01-16T02:27:37.396Z,18.3
2019-01-16T02:28:37.337Z,18.32
2019-01-16T02:29:37.126Z,18.33
2019-01-16T02:30:37.316Z,18.32
2019-01-16T02:31:37.062Z,18.29
2019-01-16T02:32:37.206Z,18.3
2019-01-16T02:33:37.167Z,18.32
2019-01-16T02:34:37.328Z,18.29
2019-01-16T02:35:37.333Z,18.28
2019-01-16T02:36:37.292Z,18.28
2019-01-16T02:37:37.105Z,18.28
2019-01-16T02:38:37.396Z,18.28
2019-01-16T02:39:37.483Z,18.28
2019-01-16T02:40:37.383Z,18.3
2019-01-16T02:41:37.363Z,18.27
2019-01-16T02:42:37.186Z,18.27
2019-01-16T02:43:37.121Z,18.29
2019-01-16T02:44:37.599Z,18.26
2019-01-16T02:45:37.089Z,18.29
2019-01-16T02:46:37.538Z,18.26
2019-01-16T02:47:37.152Z,18.26
2019-01-16T02:48:37.115Z,18.26
2019-01-16T02:49:37.077Z,18.27
2019-01-16T02:50:37.505Z,18.26
2019-01-16T02:51:36.963Z,18.23
2019-01-16T02:52:37.267Z,18.25
2019-01-16T02:53:37.144Z,18.25
2019-01-16T02:54:36.991Z,18.26
2019-01-16T02:55:37.292Z,18.25
2019-01-16T02:56:37.078Z,18.22
2019-01-16T02:57:37.216Z,18.23
2019-01-16T02:58:37.124Z,18.24
2019-01-16T02:59:37.265Z,18.24
2019-01-16T03:00:37.123Z,18.22
2019-01-16T03:01:37.179Z,18.22
2019-01-16T03:02:37.283Z,18.22
2019-01-16T03:03:37.300Z,18.21
2019-01-16T03:04:37.349Z,18.21
2019-01-16T03:05:37.258Z,18.18
2019-01-16T03:06:37.100Z,18.21
2019-01-16T03:07:37.179Z,18.21
2019-01-16T03:08:37.313Z,18.19
2019-01-16T03:09:37.128Z,18.2
2019-01-16T03:10:37.286Z,18.18
2019-01-16T03:11:37.009Z,18.19
2019-01-16T03:12:37.398Z,18.19
2019-01-16T03:13:37.266Z,18.17
2019-01-16T03:14:37.096Z,18.18
2019-01-16T03:15:37.217Z,18.18
2019-01-16T03:16:37.258Z,18.18
2019-01-16T03:17:37.061Z,18.17
2019-01-16T03:18:37.520Z,18.19
2019-01-16T03:19:37.319Z,18.15
2019-01-16T03:20:37.246Z,18.18
2019-01-16T03:21:37.457Z,18.15
2019-01-16T03:22:38.043Z,18.17
2019-01-16T03:23:37.057Z,18.15
2019-01-16T03:24:37.736Z,18.17
2019-01-16T03:25:37.219Z,18.15
2019-01-16T03:26:37.351Z,18.15
2019-01-16T03:27:37.124Z,18.14
2019-01-16T03:28:37.340Z,18.14
2019-01-16T03:29:37.344Z,18.13
2019-01-16T03:30:37.331Z,18.12
2019-01-16T03:31:37.560Z,18.12
2019-01-16T03:32:37.304Z,18.12
2019-01-16T03:33:37.239Z,18.13
2019-01-16T03:34:37.685Z,18.12
2019-01-16T03:35:37.115Z,18.14
2019-01-16T03:36:37.339Z,18.12
2019-01-16T03:37:37.344Z,18.12
2019-01-16T03:38:37.387Z,18.11
2019-01-16T03:39:37.290Z,18.11
2019-01-16T03:40:37.116Z,18.12
2019-01-16T03:41:37.407Z,18.11
2019-01-16T03:42:38.117Z,18.12
2019-01-16T03:43:37.768Z,18.09
2019-01-16T03:44:38.245Z,18.11
2019-01-16T03:45:37.064Z,18.1
2019-01-16T03:46:37.358Z,18.1
2019-01-16T03:47:37.698Z,18.1
2019-01-16T03:48:37.256Z,18.12
2019-01-16T03:49:37.906Z,18.08
2019-01-16T03:50:37.660Z,18.09
2019-01-16T03:51:37.214Z,18.09
2019-01-16T03:52:38.203Z,18.07
2019-01-16T03:53:37.381Z,18.07
2019-01-16T03:54:37.104Z,18.1
2019-01-16T03:55:37.172Z,18.09
2019-01-16T03:56:37.086Z,18.07
2019-01-16T03:57:37.808Z,18.08
2019-01-16T03:58:37.042Z,18.09
2019-01-16T03:59:37.353Z,18.1
2019-01-16T04:00:37.050Z,18.07
2019-01-16T04:01:37.079Z,18.07
2019-01-16T04:02:37.161Z,18.05
2019-01-16T04:03:37.653Z,18.08
2019-01-16T04:04:37.196Z,18.06
2019-01-16T04:05:37.040Z,18.05
2019-01-16T04:06:37.624Z,18.06
2019-01-16T04:07:37.304Z,18.06
2019-01-16T04:08:37.287Z,18.04
2019-01-16T04:09:38.244Z,18.06
2019-01-16T04:10:37.478Z,18.03
2019-01-16T04:11:37.385Z,18.04
2019-01-16T04:12:37.448Z,18.02
2019-01-16T04:13:38.328Z,18.04
2019-01-16T04:14:37.134Z,18.04
2019-01-16T04:15:37.376Z,18.04
2019-01-16T04:16:37.034Z,18.04
2019-01-16T04:17:37.110Z,18.04
2019-01-16T04:18:37.483Z,18
2019-01-16T04:19:36.907Z,18.02
2019-01-16T04:20:38.286Z,18
2019-01-16T04:21:38.059Z,18.02
2019-01-16T04:22:37.191Z,18
2019-01-16T04:23:37.182Z,18
2019-01-16T04:24:37.238Z,17.99
2019-01-16T04:25:37.360Z,17.99
2019-01-16T04:26:37.162Z,17.99
2019-01-16T04:27:39.046Z,18
2019-01-16T04:28:37.205Z,17.98
2019-01-16T04:29:37.198Z,17.99
2019-01-16T04:30:37.351Z,17.99
2019-01-16T04:31:37.352Z,18
2019-01-16T04:32:37.467Z,17.99
2019-01-16T04:33:37.426Z,17.99
2019-01-16T04:34:36.974Z,17.99
2019-01-16T04:35:37.292Z,17.97
2019-01-16T04:36:37.218Z,17.97
2019-01-16T04:37:36.971Z,17.98
2019-01-16T04:38:37.058Z,17.98
2019-01-16T04:39:37.112Z,17.96
2019-01-16T04:40:37.072Z,17.99
2019-01-16T04:41:37.164Z,17.97
2019-01-16T04:42:37.261Z,17.97
2019-01-16T04:43:37.169Z,17.97
2019-01-16T04:44:37.153Z,17.97
2019-01-16T04:45:37.059Z,17.97
2019-01-16T04:46:37.268Z,17.97
2019-01-16T04:47:37.241Z,17.98
2019-01-16T04:48:37.494Z,17.96
2019-01-16T04:49:37.133Z,17.98
2019-01-16T04:50:37.152Z,17.99
2019-01-16T04:51:37.118Z,17.98
2019-01-16T04:52:37.074Z,17.99
2019-01-16T04:53:36.964Z,17.99
2019-01-16T04:54:37.132Z,18
2019-01-16T04:55:38.040Z,18.03
2019-01-16T04:56:37.283Z,18.03
2019-01-16T04:57:37.153Z,18.03
2019-01-16T04:58:37.169Z,18.04
2019-01-16T04:59:38.922Z,18.05
2019-01-16T05:00:37.156Z,18.04
2019-01-16T05:01:39.081Z,18.07
2019-01-16T05:02:37.255Z,18.08
2019-01-16T05:03:37.443Z,18.1
2019-01-16T05:04:37.477Z,18.09
2019-01-16T05:05:37.269Z,18.08
2019-01-16T05:06:37.023Z,18.1
2019-01-16T05:07:37.267Z,18.12
2019-01-16T05:08:37.312Z,18.13
2019-01-16T05:09:37.743Z,18.15
2019-01-16T05:10:37.148Z,18.14
2019-01-16T05:11:37.129Z,18.17
2019-01-16T05:12:37.787Z,18.19
2019-01-16T05:13:37.800Z,18.2
2019-01-16T05:14:39.152Z,18.21
2019-01-16T05:15:37.088Z,18.21
2019-01-16T05:16:37.504Z,18.21
2019-01-16T05:17:37.350Z,18.25
2019-01-16T05:18:37.078Z,18.23
2019-01-16T05:19:39.255Z,18.27
2019-01-16T05:20:37.552Z,18.27
2019-01-16T05:21:38.015Z,18.3
2019-01-16T05:22:36.962Z,18.33
2019-01-16T05:23:37.112Z,18.33
2019-01-16T05:24:37.643Z,18.36
2019-01-16T05:25:39.161Z,18.36
2019-01-16T05:26:37.169Z,18.36
2019-01-16T05:27:37.042Z,18.38
2019-01-16T05:28:37.375Z,18.38
2019-01-16T05:29:37.497Z,18.41
2019-01-16T05:30:37.512Z,18.44
2019-01-16T05:31:37.108Z,18.44
2019-01-16T05:32:37.211Z,18.44
2019-01-16T05:33:37.068Z,18.47
2019-01-16T05:34:37.129Z,18.47
2019-01-16T05:35:37.761Z,18.5
2019-01-16T05:36:37.499Z,18.52
2019-01-16T05:37:37.207Z,18.52
2019-01-16T05:38:37.352Z,18.53
2019-01-16T05:39:37.078Z,18.53
2019-01-16T05:40:37.197Z,18.56
2019-01-16T05:41:37.394Z,18.58
2019-01-16T05:42:37.386Z,18.61
2019-01-16T05:43:37.416Z,18.61
2019-01-16T05:44:36.940Z,18.62
2019-01-16T05:45:37.672Z,18.63
2019-01-16T05:46:37.749Z,18.65
2019-01-16T05:47:37.838Z,18.66
2019-01-16T05:48:37.410Z,18.68
2019-01-16T05:49:37.387Z,18.67
2019-01-16T05:50:37.062Z,18.69
2019-01-16T05:51:37.008Z,18.7
2019-01-16T05:52:37.075Z,18.69
2019-01-16T05:53:37.252Z,18.71
2019-01-16T05:54:37.134Z,18.73
2019-01-16T05:55:37.194Z,18.74
2019-01-16T05:56:38.895Z,18.78
2019-01-16T05:57:37.068Z,18.78
2019-01-16T05:58:36.858Z,18.79
2019-01-16T05:59:37.026Z,18.78
2019-01-16T06:00:37.328Z,18.8
2019-01-16T06:01:37.057Z,18.81
2019-01-16T06:02:37.296Z,18.83
2019-01-16T06:03:37.037Z,18.83
2019-01-16T06:04:37.233Z,18.83
2019-01-16T06:05:37.035Z,18.86
2019-01-16T06:06:37.634Z,18.85
2019-01-16T06:07:38.822Z,18.86
2019-01-16T06:08:37.210Z,18.87
2019-01-16T06:09:37.072Z,18.89
2019-01-16T06:10:38.841Z,18.88
2019-01-16T06:11:37.310Z,18.89
2019-01-16T06:12:37.184Z,18.93
2019-01-16T06:13:37.007Z,18.94
2019-01-16T06:14:37.068Z,18.94
2019-01-16T06:15:37.302Z,18.94
2019-01-16T06:16:37.177Z,18.96
2019-01-16T06:17:37.255Z,18.96
2019-01-16T06:18:37.359Z,18.97
2019-01-16T06:19:36.997Z,18.98
2019-01-16T06:20:37.112Z,19
2019-01-16T06:21:37.008Z,19.01
2019-01-16T06:22:36.995Z,19.02
2019-01-16T06:23:37.132Z,18.99
2019-01-16T06:24:37.537Z,19.02
2019-01-16T06:25:36.938Z,19.03
2019-01-16T06:26:37.003Z,19.03
2019-01-16T06:27:36.880Z,19.05
2019-01-16T06:28:37.060Z,19.06
2019-01-16T06:29:37.146Z,19.08
2019-01-16T06:30:37.118Z,19.08
2019-01-16T06:31:36.889Z,19.1
2019-01-16T06:32:37.596Z,19.1
2019-01-16T06:33:37.295Z,19.1
2019-01-16T06:34:37.026Z,19.12
2019-01-16T06:35:37.174Z,19.13
2019-01-16T06:36:36.982Z,19.13
2019-01-16T06:37:37.416Z,19.14
2019-01-16T06:38:37.315Z,19.17
2019-01-16T06:39:37.146Z,19.21
2019-01-16T06:40:37.067Z,19.2
2019-01-16T06:41:37.215Z,19.22
2019-01-16T06:42:38.850Z,19.23
2019-01-16T06:43:38.961Z,19.21
2019-01-16T06:44:37.402Z,19.25
2019-01-16T06:45:36.887Z,19.24
2019-01-16T06:46:37.125Z,19.26
2019-01-16T06:47:37.405Z,19.28
2019-01-16T06:48:37.258Z,19.29
2019-01-16T06:49:37.313Z,19.3
2019-01-16T06:50:36.887Z,19.31
2019-01-16T06:51:37.821Z,19.32
2019-01-16T06:52:37.153Z,19.35
2019-01-16T06:53:37.482Z,19.38
2019-01-16T06:54:37.075Z,19.39
2019-01-16T06:55:37.525Z,19.39
2019-01-16T06:56:37.406Z,19.4
2019-01-16T06:57:36.845Z,19.4
2019-01-16T06:58:37.493Z,19.41
2019-01-16T06:59:37.367Z,19.44
2019-01-16T07:00:37.373Z,19.46
2019-01-16T07:01:37.105Z,19.45
2019-01-16T07:02:37.298Z,19.46
2019-01-16T07:03:37.255Z,19.45
2019-01-16T07:04:37.134Z,19.46
2019-01-16T07:05:36.963Z,19.46
2019-01-16T07:06:37.098Z,19.46
2019-01-16T07:07:38.099Z,19.47
2019-01-16T07:08:37.074Z,19.47
2019-01-16T07:09:38.233Z,19.48
2019-01-16T07:10:36.782Z,19.46
2019-01-16T07:11:37.195Z,19.47
2019-01-16T07:12:37.834Z,19.48
2019-01-16T07:13:37.439Z,19.47
2019-01-16T07:14:37.005Z,19.46
2019-01-16T07:15:37.224Z,19.5
2019-01-16T07:16:37.045Z,19.45
2019-01-16T07:17:37.834Z,19.46
2019-01-16T07:18:37.077Z,19.46
2019-01-16T07:19:37.054Z,19.45
2019-01-16T07:20:37.345Z,19.48
2019-01-16T07:21:36.967Z,19.5
2019-01-16T07:22:37.190Z,19.51
2019-01-16T07:23:37.298Z,19.5
2019-01-16T07:24:37.293Z,19.52
2019-01-16T07:25:37.009Z,19.55
2019-01-16T07:26:37.362Z,19.55
2019-01-16T07:27:37.034Z,19.54
2019-01-16T07:28:37.112Z,19.55
2019-01-16T07:29:37.215Z,19.56
2019-01-16T07:30:36.865Z,19.58
2019-01-16T07:31:37.062Z,19.59
2019-01-16T07:32:36.967Z,19.6
2019-01-16T07:33:37.226Z,19.59
2019-01-16T07:34:37.104Z,19.6
2019-01-16T07:35:37.350Z,19.6
2019-01-16T07:36:37.298Z,19.62
2019-01-16T07:37:37.446Z,19.65
2019-01-16T07:38:38.389Z,19.62
2019-01-16T07:39:37.538Z,19.62
2019-01-16T07:40:37.360Z,19.63
2019-01-16T07:41:37.192Z,19.63
2019-01-16T07:42:37.450Z,19.65
2019-01-16T07:43:37.014Z,19.62
2019-01-16T07:44:37.018Z,19.61
2019-01-16T07:45:36.966Z,19.62
2019-01-16T07:46:38.152Z,19.62
2019-01-16T07:47:37.138Z,19.62
2019-01-16T07:48:37.366Z,19.62
2019-01-16T07:49:37.453Z,19.6
2019-01-16T07:50:36.990Z,19.59
2019-01-16T07:51:37.513Z,19.62
2019-01-16T07:52:37.207Z,19.6
2019-01-16T07:53:37.179Z,19.6
2019-01-16T07:54:37.441Z,19.58
2019-01-16T07:55:37.435Z,19.57
2019-01-16T07:56:36.916Z,19.59
2019-01-16T07:57:37.231Z,19.58
2019-01-16T07:58:37.150Z,19.56
2019-01-16T07:59:37.431Z,19.59
2019-01-16T08:00:37.736Z,19.58
2019-01-16T08:01:36.864Z,19.58
2019-01-16T08:02:37.402Z,19.57
2019-01-16T08:03:37.276Z,19.59
2019-01-16T08:04:37.168Z,19.58
2019-01-16T08:05:36.957Z,19.57
2019-01-16T08:06:37.095Z,19.59
2019-01-16T08:07:37.205Z,19.56
2019-01-16T08:08:37.023Z,19.58
2019-01-16T08:09:37.167Z,19.56
2019-01-16T08:10:37.157Z,19.58
2019-01-16T08:11:37.089Z,19.58
2019-01-16T08:12:36.835Z,19.59
2019-01-16T08:13:36.990Z,19.59
2019-01-16T08:14:37.055Z,19.59
2019-01-16T08:15:37.015Z,19.59
2019-01-16T08:16:37.424Z,19.6
2019-01-16T08:17:37.124Z,19.59
2019-01-16T08:18:36.860Z,19.59
2019-01-16T08:19:37.064Z,19.58
2019-01-16T08:20:37.207Z,19.59
2019-01-16T08:21:37.421Z,19.59
2019-01-16T08:22:37.289Z,19.59
2019-01-16T08:23:37.292Z,19.58
2019-01-16T08:24:37.028Z,19.59
2019-01-16T08:25:37.432Z,19.6
2019-01-16T08:26:36.935Z,19.59
2019-01-16T08:27:38.390Z,19.59
2019-01-16T08:28:37.303Z,19.61
2019-01-16T08:29:36.881Z,19.58
2019-01-16T08:30:37.401Z,19.58
2019-01-16T08:31:37.117Z,19.6
2019-01-16T08:32:37.283Z,19.61
2019-01-16T08:33:37.064Z,19.6
2019-01-16T08:34:37.682Z,19.6
2019-01-16T08:35:37.263Z,19.58
2019-01-16T08:36:36.950Z,19.6
2019-01-16T08:37:36.905Z,19.59
2019-01-16T08:38:37.434Z,19.6
2019-01-16T08:39:37.753Z,19.62
2019-01-16T08:40:36.950Z,19.59
2019-01-16T08:41:37.267Z,19.6
2019-01-16T08:42:37.174Z,19.61
2019-01-16T08:43:37.204Z,19.6
2019-01-16T08:44:38.406Z,19.62
2019-01-16T08:45:37.144Z,19.61
2019-01-16T08:46:37.391Z,19.59
2019-01-16T08:47:37.192Z,19.61
2019-01-16T08:48:37.112Z,19.61
2019-01-16T08:49:37.242Z,19.62
2019-01-16T08:50:37.103Z,19.62
2019-01-16T08:51:36.897Z,19.6
2019-01-16T08:52:37.396Z,19.62
2019-01-16T08:53:37.454Z,19.62
2019-01-16T08:54:37.204Z,19.61
2019-01-16T08:55:37.074Z,19.62
2019-01-16T08:56:37.134Z,19.63
2019-01-16T08:57:37.255Z,19.63
2019-01-16T08:58:37.296Z,19.63
2019-01-16T08:59:37.100Z,19.62
2019-01-16T09:00:37.014Z,19.63
2019-01-16T09:01:36.969Z,19.63
2019-01-16T09:02:37.311Z,19.63
2019-01-16T09:03:37.130Z,19.65
2019-01-16T09:04:37.053Z,19.65
2019-01-16T09:05:37.454Z,19.65
2019-01-16T09:06:37.171Z,19.65
2019-01-16T09:07:37.917Z,19.67
2019-01-16T09:08:36.808Z,19.68
2019-01-16T09:09:37.602Z,19.68
2019-01-16T09:10:36.950Z,19.7
2019-01-16T09:11:37.000Z,19.68
2019-01-16T09:12:36.968Z,19.7
2019-01-16T09:13:37.203Z,19.68
2019-01-16T09:14:37.451Z,19.67
2019-01-16T09:15:37.707Z,19.69
2019-01-16T09:16:36.998Z,19.71
2019-01-16T09:17:36.855Z,19.69
2019-01-16T09:18:37.512Z,19.7
2019-01-16T09:19:37.588Z,19.7
2019-01-16T09:20:40.463Z,19.71
2019-01-16T09:21:37.099Z,19.71
2019-01-16T09:22:37.344Z,19.71
2019-01-16T09:23:36.936Z,19.69
2019-01-16T09:24:37.365Z,19.71
2019-01-16T09:25:37.919Z,19.71
2019-01-16T09:26:36.934Z,19.7
2019-01-16T09:27:38.786Z,19.71
2019-01-16T09:28:37.869Z,19.7
2019-01-16T09:29:37.227Z,19.72
2019-01-16T09:30:36.826Z,19.71
2019-01-16T09:31:37.196Z,19.71
2019-01-16T09:32:37.204Z,19.71
2019-01-16T09:33:37.222Z,19.71
2019-01-16T09:34:37.411Z,19.71
2019-01-16T09:35:37.053Z,19.73
2019-01-16T09:36:37.132Z,19.72
2019-01-16T09:37:36.910Z,19.73
2019-01-16T09:38:37.604Z,19.73
2019-01-16T09:39:36.828Z,19.71
2019-01-16T09:40:37.346Z,19.72
2019-01-16T09:41:37.273Z,19.72
2019-01-16T09:42:37.077Z,19.73
2019-01-16T09:43:37.354Z,19.74
2019-01-16T09:44:37.028Z,19.74
2019-01-16T09:45:37.402Z,19.75
2019-01-16T09:46:37.074Z,19.73
2019-01-16T09:47:37.146Z,19.74
2019-01-16T09:48:36.956Z,19.73
2019-01-16T09:49:36.990Z,19.74
2019-01-16T09:50:36.920Z,19.75
2019-01-16T09:51:36.860Z,19.77
2019-01-16T09:52:37.447Z,19.73
2019-01-16T09:53:37.280Z,19.75
2019-01-16T09:54:37.058Z,19.75
2019-01-16T09:55:37.123Z,19.75
2019-01-16T09:56:36.935Z,19.77
2019-01-16T09:57:37.032Z,19.75
2019-01-16T09:58:37.004Z,19.75
2019-01-16T09:59:37.049Z,19.75
2019-01-16T10:00:36.991Z,19.76
2019-01-16T10:01:37.038Z,19.76
2019-01-16T10:02:37.109Z,19.79
2019-01-16T10:03:37.139Z,19.76
2019-01-16T10:04:37.017Z,19.79
2019-01-16T10:05:36.905Z,19.79
2019-01-16T10:06:37.995Z,19.77
2019-01-16T10:07:36.920Z,19.79
2019-01-16T10:08:37.548Z,19.77
2019-01-16T10:09:37.005Z,19.8
2019-01-16T10:10:37.163Z,19.77
2019-01-16T10:11:37.425Z,19.8
2019-01-16T10:12:37.022Z,19.8
2019-01-16T10:13:36.835Z,19.81
2019-01-16T10:14:37.471Z,19.8
2019-01-16T10:15:39.718Z,19.82
2019-01-16T10:16:37.342Z,19.82
2019-01-16T10:17:37.962Z,19.81
2019-01-16T10:18:37.257Z,19.81
2019-01-16T10:19:37.068Z,19.81
2019-01-16T10:20:37.751Z,19.81
2019-01-16T10:21:37.892Z,19.81
2019-01-16T10:22:37.141Z,19.8
2019-01-16T10:23:37.246Z,19.8
2019-01-16T10:24:37.155Z,19.8
2019-01-16T10:25:36.953Z,19.81
2019-01-16T10:26:37.143Z,19.81
2019-01-16T10:27:37.254Z,19.81
2019-01-16T10:28:38.882Z,19.82
2019-01-16T10:29:36.911Z,19.82
2019-01-16T10:30:37.020Z,19.82
2019-01-16T10:31:37.794Z,19.79
2019-01-16T10:32:37.289Z,19.73
2019-01-16T10:33:37.327Z,19.69
2019-01-16T10:34:37.087Z,19.65
2019-01-16T10:35:36.941Z,19.57
2019-01-16T10:36:36.869Z,19.54
2019-01-16T10:37:37.120Z,19.5
2019-01-16T10:38:36.818Z,19.45
2019-01-16T10:39:36.983Z,19.41
2019-01-16T10:40:36.924Z,19.35
2019-01-16T10:41:37.757Z,19.31
2019-01-16T10:42:37.174Z,19.29
2019-01-16T10:43:36.961Z,19.28
2019-01-16T10:44:37.338Z,19.28
2019-01-16T10:45:37.413Z,19.25
2019-01-16T10:46:37.032Z,19.25
2019-01-16T10:47:36.907Z,19.26
2019-01-16T10:48:36.960Z,19.26
2019-01-16T10:49:37.290Z,19.26
2019-01-16T10:50:36.954Z,19.26
2019-01-16T10:51:37.088Z,19.26
2019-01-16T10:52:36.872Z,19.27
2019-01-16T10:53:37.116Z,19.28
2019-01-16T10:54:37.155Z,19.29
2019-01-16T10:55:36.801Z,19.29
2019-01-16T10:56:38.794Z,19.29
2019-01-16T10:57:36.708Z,19.32
2019-01-16T10:58:37.129Z,19.31
2019-01-16T10:59:37.281Z,19.32
2019-01-16T11:00:36.731Z,19.32
2019-01-16T11:01:37.081Z,19.32
2019-01-16T11:02:36.913Z,19.31
2019-01-16T11:03:37.162Z,19.33
2019-01-16T11:04:36.864Z,19.33
2019-01-16T11:05:37.017Z,19.32
2019-01-16T11:06:36.972Z,19.33
2019-01-16T11:07:37.445Z,19.32
2019-01-16T11:08:36.998Z,19.32
2019-01-16T11:09:36.767Z,19.32
2019-01-16T11:10:37.123Z,19.33
2019-01-16T11:11:36.942Z,19.35
2019-01-16T11:12:37.034Z,19.32
2019-01-16T11:13:38.028Z,19.35
2019-01-16T11:14:36.930Z,19.33
2019-01-16T11:15:36.897Z,19.32
2019-01-16T11:16:38.898Z,19.33
2019-01-16T11:17:36.828Z,19.35
2019-01-16T11:18:36.949Z,19.35
2019-01-16T11:19:37.394Z,19.31
2019-01-16T11:20:37.076Z,19.35
2019-01-16T11:21:37.148Z,19.35
2019-01-16T11:22:36.921Z,19.35
2019-01-16T11:23:37.081Z,19.32
2019-01-16T11:24:37.181Z,19.33
2019-01-16T11:25:37.366Z,19.32
2019-01-16T11:26:36.748Z,19.33
2019-01-16T11:27:37.086Z,19.32
2019-01-16T11:28:36.944Z,19.33
2019-01-16T11:29:36.926Z,19.32
2019-01-16T11:30:37.063Z,19.3
2019-01-16T11:31:36.942Z,19.31
2019-01-16T11:32:36.854Z,19.32
2019-01-16T11:33:36.855Z,19.35
2019-01-16T11:34:37.177Z,19.32
2019-01-16T11:35:37.200Z,19.31
2019-01-16T11:36:36.832Z,19.32
2019-01-16T11:37:36.992Z,19.32
2019-01-16T11:38:36.884Z,19.32
2019-01-16T11:39:37.121Z,19.32
2019-01-16T11:40:36.822Z,19.31
2019-01-16T11:41:37.047Z,19.32
2019-01-16T11:42:36.985Z,19.35
2019-01-16T11:43:37.046Z,19.31
2019-01-16T11:44:36.927Z,19.33
2019-01-16T11:45:37.096Z,19.32
2019-01-16T11:46:36.837Z,19.32
2019-01-16T11:47:37.056Z,19.33
2019-01-16T11:48:39.561Z,19.3
2019-01-16T11:49:36.969Z,19.32
2019-01-16T11:50:37.115Z,19.33
2019-01-16T11:51:37.109Z,19.32
2019-01-16T11:52:36.809Z,19.33
2019-01-16T11:53:38.057Z,19.32
2019-01-16T11:54:37.320Z,19.33
2019-01-16T11:55:37.428Z,19.32
2019-01-16T11:56:36.959Z,19.32
2019-01-16T11:57:36.834Z,19.32
2019-01-16T11:58:37.862Z,19.35
2019-01-16T11:59:38.862Z,19.32
2019-01-16T12:00:37.589Z,19.32
2019-01-16T12:01:37.192Z,19.33
2019-01-16T12:02:39.083Z,19.32
2019-01-16T12:03:38.720Z,19.32
2019-01-16T12:04:36.820Z,19.33
2019-01-16T12:05:36.937Z,19.32
2019-01-16T12:06:37.215Z,19.33
2019-01-16T12:07:37.191Z,19.32
2019-01-16T12:08:37.115Z,19.36
2019-01-16T12:09:37.145Z,19.32
2019-01-16T12:10:37.285Z,19.32
2019-01-16T12:11:38.620Z,19.33
2019-01-16T12:12:36.856Z,19.32
2019-01-16T12:13:37.042Z,19.32
2019-01-16T12:14:37.170Z,19.32
2019-01-16T12:15:36.999Z,19.32
2019-01-16T12:16:37.698Z,19.33
2019-01-16T12:17:36.999Z,19.32
2019-01-16T12:18:37.185Z,19.32
2019-01-16T12:19:36.745Z,19.3
2019-01-16T12:20:37.093Z,19.35
2019-01-16T12:21:37.023Z,19.32
2019-01-16T12:22:36.809Z,19.33
2019-01-16T12:23:37.358Z,19.32
2019-01-16T12:24:37.200Z,19.32
2019-01-16T12:25:36.929Z,19.32
2019-01-16T12:26:36.883Z,19.32
2019-01-16T12:27:37.363Z,19.32
2019-01-16T12:28:36.817Z,19.32
2019-01-16T12:29:36.927Z,19.32
2019-01-16T12:30:37.095Z,19.33
2019-01-16T12:31:36.830Z,19.33
2019-01-16T12:32:36.848Z,19.32
2019-01-16T12:33:37.202Z,19.32
2019-01-16T12:34:36.785Z,19.32
2019-01-16T12:35:37.133Z,19.32
2019-01-16T12:36:36.795Z,19.33
2019-01-16T12:37:37.433Z,19.35
2019-01-16T12:38:36.862Z,19.33
2019-01-16T12:39:37.259Z,19.33
2019-01-16T12:40:36.939Z,19.33
2019-01-16T12:41:36.960Z,19.32
2019-01-16T12:42:37.165Z,19.33
2019-01-16T12:43:37.178Z,19.32
2019-01-16T12:44:37.143Z,19.32
2019-01-16T12:45:36.752Z,19.33
2019-01-16T12:46:37.425Z,19.32
2019-01-16T12:47:36.805Z,19.32
2019-01-16T12:48:36.877Z,19.31
2019-01-16T12:49:36.924Z,19.32
2019-01-16T12:50:36.817Z,19.33
2019-01-16T12:51:37.166Z,19.33
2019-01-16T12:52:37.332Z,19.32
2019-01-16T12:53:37.315Z,19.33
2019-01-16T12:54:37.001Z,19.32
2019-01-16T12:55:37.379Z,19.33